Time,TemperatureF,DewpointF,PressureIn,WindDirection,WindDirectionDegrees,WindSpeedMPH,WindSpeedGustMPH,Humidity,HourlyPrecipIn,Conditions,Clouds,dailyrainin,SoftwareType,DateUTC
2013-01-08 00:04:00,30.7,27.3,30.35,NNW,335,0.0,1.0,87,0.00,,,0.00,Wunderground v.1.15,2013-01-08 05:04:00,
2013-01-08 00:08:00,30.7,27.3,30.36,NNW,348,1.0,1.0,87,0.00,,,0.00,Wunderground v.1.15,2013-01-08 05:08:00,
2013-01-08 00:18:00,31.0,28.1,30.36,West,264,1.0,1.0,89,0.00,,,0.00,Wunderground v.1.15,2013-01-08 05:18:00,
2013-01-08 00:23:00,32.0,28.8,30.36,West,264,1.0,1.0,88,0.00,,,0.00,Wunderground v.1.15,2013-01-08 05:23:00,
2013-01-08 00:29:00,32.2,28.5,30.36,West,264,0.0,0.0,86,0.00,,,0.00,Wunderground v.1.15,2013-01-08 05:29:00,
2013-01-08 00:35:00,31.9,28.2,30.35,West,264,0.0,0.0,86,0.00,,,0.00,Wunderground v.1.15,2013-01-08 05:35:00,
2013-01-08 00:41:00,31.5,28.4,30.35,West,264,0.0,1.0,88,0.00,,,0.00,Wunderground v.1.15,2013-01-08 05:41:00,
2013-01-08 00:48:00,31.5,28.6,30.36,West,264,1.0,1.0,89,0.00,,,0.00,Wunderground v.1.15,2013-01-08 05:48:00,
2013-01-08 00:53:00,31.1,28.0,30.35,West,264,1.0,1.0,88,0.00,,,0.00,Wunderground v.1.15,2013-01-08 05:53:00,
2013-01-08 01:00:00,30.8,27.9,30.35,West,264,0.0,0.0,89,0.00,,,0.00,Wunderground v.1.15,2013-01-08 06:00:00,
2013-01-08 01:05:00,30.5,27.6,30.36,West,278,0.0,2.0,89,0.00,,,0.00,Wunderground v.1.15,2013-01-08 06:05:00,
2013-01-08 01:12:00,30.4,27.5,30.36,West,278,0.0,2.0,89,0.00,,,0.00,Wunderground v.1.15,2013-01-08 06:12:00,
2013-01-08 01:18:00,30.7,28.4,30.36,West,278,0.0,2.0,91,0.00,,,0.00,Wunderground v.1.15,2013-01-08 06:18:00,
2013-01-08 01:24:00,31.4,29.3,30.36,WNW,295,0.0,2.0,92,0.00,,,0.00,Wunderground v.1.15,2013-01-08 06:24:00,
2013-01-08 01:30:00,31.4,28.8,30.37,WNW,294,0.0,2.0,90,0.00,,,0.00,Wunderground v.1.15,2013-01-08 06:30:00,
2013-01-08 01:35:00,31.4,29.1,30.37,WNW,294,0.0,2.0,91,0.00,,,0.00,Wunderground v.1.15,2013-01-08 06:35:00,
2013-01-08 01:41:00,30.8,28.5,30.37,NW,307,1.0,2.0,91,0.00,,,0.00,Wunderground v.1.15,2013-01-08 06:41:00,
2013-01-08 01:47:00,31.0,29.2,30.37,NW,326,1.0,2.0,93,0.00,,,0.00,Wunderground v.1.15,2013-01-08 06:47:00,
2013-01-08 01:54:00,31.5,29.7,30.37,NNW,329,1.0,2.0,93,0.00,,,0.00,Wunderground v.1.15,2013-01-08 06:54:00,
2013-01-08 02:00:00,31.6,29.8,30.37,NW,314,1.0,2.0,93,0.00,,,0.00,Wunderground v.1.15,2013-01-08 07:00:00,
2013-01-08 02:06:00,31.6,30.1,30.37,North,349,1.0,2.0,94,0.00,,,0.00,Wunderground v.1.15,2013-01-08 07:06:00,
2013-01-08 02:12:00,31.6,29.8,30.37,North,349,1.0,2.0,93,0.00,,,0.00,Wunderground v.1.15,2013-01-08 07:12:00,
2013-01-08 02:17:00,31.2,29.1,30.37,NW,324,1.0,2.0,92,0.00,,,0.00,Wunderground v.1.15,2013-01-08 07:17:00,
2013-01-08 02:23:00,30.5,28.5,30.37,NW,325,1.0,2.0,92,0.00,,,0.00,Wunderground v.1.15,2013-01-08 07:23:00,
2013-01-08 02:29:00,30.4,28.4,30.37,NW,324,1.0,1.0,92,0.00,,,0.00,Wunderground v.1.15,2013-01-08 07:29:00,
2013-01-08 02:35:00,30.5,28.7,30.38,NNW,330,0.0,2.0,93,0.00,,,0.00,Wunderground v.1.15,2013-01-08 07:35:00,
2013-01-08 02:42:00,30.1,28.3,30.38,NNW,330,0.0,2.0,93,0.00,,,0.00,Wunderground v.1.15,2013-01-08 07:42:00,
2013-01-08 02:48:00,29.9,28.1,30.38,NNW,330,1.0,2.0,93,0.00,,,0.00,Wunderground v.1.15,2013-01-08 07:48:00,
2013-01-08 02:54:00,29.6,27.8,30.37,NNW,330,1.0,2.0,93,0.00,,,0.00,Wunderground v.1.15,2013-01-08 07:54:00,
2013-01-08 02:59:00,29.7,28.2,30.37,NNW,328,1.0,1.0,94,0.00,,,0.00,Wunderground v.1.15,2013-01-08 07:59:00,
2013-01-08 03:05:00,30.1,28.6,30.37,NNW,328,1.0,2.0,94,0.00,,,0.00,Wunderground v.1.15,2013-01-08 08:05:00,
2013-01-08 03:11:00,30.4,28.9,30.37,NNW,332,1.0,2.0,94,0.00,,,0.00,Wunderground v.1.15,2013-01-08 08:11:00,
2013-01-08 03:17:00,30.6,28.8,30.37,NNW,331,0.0,2.0,93,0.00,,,0.00,Wunderground v.1.15,2013-01-08 08:17:00,
2013-01-08 03:23:00,30.2,28.2,30.37,WNW,301,0.0,2.0,92,0.00,,,0.00,Wunderground v.1.15,2013-01-08 08:23:00,
2013-01-08 03:30:00,30.0,28.0,30.37,WNW,295,0.0,2.0,92,0.00,,,0.00,Wunderground v.1.15,2013-01-08 08:30:00,
2013-01-08 03:36:00,29.8,27.8,30.37,WNW,295,1.0,2.0,92,0.00,,,0.00,Wunderground v.1.15,2013-01-08 08:36:00,
2013-01-08 03:42:00,30.0,28.2,30.37,WNW,284,1.0,2.0,93,0.00,,,0.00,Wunderground v.1.15,2013-01-08 08:42:00,
2013-01-08 03:47:00,30.0,28.0,30.37,WNW,285,1.0,2.0,92,0.00,,,0.00,Wunderground v.1.15,2013-01-08 08:47:00,
2013-01-08 03:53:00,29.6,27.3,30.37,WNW,285,0.0,2.0,91,0.00,,,0.00,Wunderground v.1.15,2013-01-08 08:53:00,
2013-01-08 03:59:00,29.5,27.5,30.37,WNW,285,0.0,2.0,92,0.00,,,0.00,Wunderground v.1.15,2013-01-08 08:59:00,
2013-01-08 04:06:00,29.4,27.6,30.38,WNW,285,0.0,2.0,93,0.00,,,0.00,Wunderground v.1.15,2013-01-08 09:06:00,
2013-01-08 04:11:00,29.6,27.8,30.37,WNW,285,0.0,2.0,93,0.00,,,0.00,Wunderground v.1.15,2013-01-08 09:11:00,
2013-01-08 04:18:00,29.2,27.2,30.37,WNW,285,0.0,2.0,92,0.00,,,0.00,Wunderground v.1.15,2013-01-08 09:18:00,
2013-01-08 04:24:00,28.9,26.9,30.37,NW,321,0.0,2.0,92,0.00,,,0.00,Wunderground v.1.15,2013-01-08 09:24:00,
2013-01-08 04:30:00,28.6,26.8,30.36,NW,311,1.0,2.0,93,0.00,,,0.00,Wunderground v.1.15,2013-01-08 09:30:00,
2013-01-08 04:36:00,29.1,27.6,30.37,NW,304,1.0,2.0,94,0.00,,,0.00,Wunderground v.1.15,2013-01-08 09:36:00,
2013-01-08 04:41:00,29.8,28.3,30.36,NW,314,2.0,2.0,94,0.00,,,0.00,Wunderground v.1.15,2013-01-08 09:41:00,
2013-01-08 04:47:00,30.0,28.5,30.36,West,276,1.0,2.0,94,0.00,,,0.00,Wunderground v.1.15,2013-01-08 09:47:00,
2013-01-08 04:54:00,30.0,28.2,30.37,West,276,0.0,2.0,93,0.00,,,0.00,Wunderground v.1.15,2013-01-08 09:54:00,
2013-01-08 05:00:00,29.9,28.1,30.36,NW,322,0.0,2.0,93,0.00,,,0.00,Wunderground v.1.15,2013-01-08 10:00:00,
2013-01-08 05:06:00,29.8,28.0,30.36,NW,304,1.0,2.0,93,0.00,,,0.00,Wunderground v.1.15,2013-01-08 10:06:00,
2013-01-08 05:12:00,29.9,28.1,30.36,West,279,1.0,2.0,93,0.00,,,0.00,Wunderground v.1.15,2013-01-08 10:12:00,
2013-01-08 05:18:00,30.0,28.2,30.37,West,260,1.0,2.0,93,0.00,,,0.00,Wunderground v.1.15,2013-01-08 10:18:00,
2013-01-08 05:24:00,30.3,28.3,30.37,SW,232,0.0,2.0,92,0.00,,,0.00,Wunderground v.1.15,2013-01-08 10:24:00,
2013-01-08 05:29:00,30.1,28.1,30.37,SE,127,0.0,2.0,92,0.00,,,0.00,Wunderground v.1.15,2013-01-08 10:29:00,
2013-01-08 05:35:00,29.5,27.2,30.37,East,101,0.0,2.0,91,0.00,,,0.00,Wunderground v.1.15,2013-01-08 10:35:00,
2013-01-08 05:41:00,29.2,27.2,30.37,NE,44,0.0,2.0,92,0.00,,,0.00,Wunderground v.1.15,2013-01-08 10:41:00,
2013-01-08 05:47:00,29.0,27.0,30.38,WNW,294,0.0,2.0,92,0.00,,,0.00,Wunderground v.1.15,2013-01-08 10:47:00,
2013-01-08 05:54:00,29.2,27.4,30.38,WNW,294,0.0,2.0,93,0.00,,,0.00,Wunderground v.1.15,2013-01-08 10:54:00,
2013-01-08 06:00:00,29.5,27.7,30.38,WNW,294,0.0,2.0,93,0.00,,,0.00,Wunderground v.1.15,2013-01-08 11:00:00,
2013-01-08 06:06:00,29.4,27.1,30.38,WNW,294,0.0,2.0,91,0.00,,,0.00,Wunderground v.1.15,2013-01-08 11:06:00,
2013-01-08 06:11:00,29.0,26.7,30.37,NW,307,0.0,2.0,91,0.00,,,0.00,Wunderground v.1.15,2013-01-08 11:11:00,
2013-01-08 06:17:00,28.5,26.5,30.37,NW,304,0.0,2.0,92,0.00,,,0.00,Wunderground v.1.15,2013-01-08 11:17:00,
2013-01-08 06:24:00,28.9,27.1,30.38,NW,304,0.0,2.0,93,0.00,,,0.00,Wunderground v.1.15,2013-01-08 11:24:00,
2013-01-08 06:29:00,28.9,27.1,30.38,WSW,248,0.0,2.0,93,0.00,,,0.00,Wunderground v.1.15,2013-01-08 11:29:00,
2013-01-08 06:36:00,29.4,27.6,30.38,WNW,295,0.0,2.0,93,0.00,,,0.00,Wunderground v.1.15,2013-01-08 11:36:00,
2013-01-08 06:41:00,29.5,27.5,30.39,WNW,296,1.0,2.0,92,0.00,,,0.00,Wunderground v.1.15,2013-01-08 11:41:00,
2013-01-08 06:47:00,29.6,27.6,30.39,WNW,302,1.0,2.0,92,0.00,,,0.00,Wunderground v.1.15,2013-01-08 11:47:00,
2013-01-08 06:53:00,29.4,27.4,30.40,WNW,302,0.0,2.0,92,0.00,,,0.00,Wunderground v.1.15,2013-01-08 11:53:00,
2013-01-08 07:00:00,29.2,27.2,30.40,WNW,302,0.0,2.0,92,0.00,,,0.00,Wunderground v.1.15,2013-01-08 12:00:00,
2013-01-08 07:06:00,29.1,27.1,30.40,NW,304,0.0,2.0,92,0.00,,,0.00,Wunderground v.1.15,2013-01-08 12:06:00,
2013-01-08 07:12:00,28.9,26.9,30.40,NW,318,0.0,2.0,92,0.00,,,0.00,Wunderground v.1.15,2013-01-08 12:12:00,
2013-01-08 07:17:00,28.8,26.8,30.40,NNW,329,0.0,2.0,92,0.00,,,0.00,Wunderground v.1.15,2013-01-08 12:17:00,
2013-01-08 07:24:00,28.9,26.9,30.40,WNW,288,0.0,2.0,92,0.00,,,0.00,Wunderground v.1.15,2013-01-08 12:24:00,
2013-01-08 07:29:00,29.2,27.4,30.41,WNW,290,0.0,2.0,93,0.00,,,0.00,Wunderground v.1.15,2013-01-08 12:29:00,
2013-01-08 07:35:00,29.5,27.5,30.41,NW,310,0.0,2.0,92,0.00,,,0.00,Wunderground v.1.15,2013-01-08 12:35:00,
2013-01-08 07:41:00,29.9,28.1,30.41,NNE,13,0.0,2.0,93,0.00,,,0.00,Wunderground v.1.15,2013-01-08 12:41:00,
2013-01-08 07:48:00,30.1,28.1,30.42,North,11,0.0,2.0,92,0.00,,,0.00,Wunderground v.1.15,2013-01-08 12:48:00,
2013-01-08 07:54:00,29.8,27.5,30.42,North,11,0.0,2.0,91,0.00,,,0.00,Wunderground v.1.15,2013-01-08 12:54:00,
2013-01-08 08:00:00,29.9,27.6,30.43,NW,314,0.0,2.0,91,0.00,,,0.00,Wunderground v.1.15,2013-01-08 13:00:00,
2013-01-08 08:05:00,29.5,27.2,30.43,WNW,297,1.0,2.0,91,0.00,,,0.00,Wunderground v.1.15,2013-01-08 13:05:00,
2013-01-08 08:12:00,29.9,27.9,30.44,WNW,284,1.0,2.0,92,0.00,,,0.00,Wunderground v.1.15,2013-01-08 13:12:00,
2013-01-08 08:17:00,30.4,28.4,30.44,WNW,283,0.0,2.0,92,0.00,,,0.00,Wunderground v.1.15,2013-01-08 13:17:00,
2013-01-08 08:23:00,30.4,28.1,30.44,West,279,0.0,2.0,91,0.00,,,0.00,Wunderground v.1.15,2013-01-08 13:23:00,
2013-01-08 08:29:00,30.7,28.4,30.44,West,278,0.0,2.0,91,0.00,,,0.00,Wunderground v.1.15,2013-01-08 13:29:00,
2013-01-08 08:36:00,30.7,28.7,30.44,WNW,284,0.0,2.0,92,0.00,,,0.00,Wunderground v.1.15,2013-01-08 13:36:00,
2013-01-08 08:42:00,31.0,28.9,30.45,WNW,285,0.0,2.0,92,0.00,,,0.00,Wunderground v.1.15,2013-01-08 13:42:00,
2013-01-08 08:48:00,31.5,29.4,30.46,WNW,285,0.0,2.0,92,0.00,,,0.00,Wunderground v.1.15,2013-01-08 13:48:00,
2013-01-08 08:53:00,32.0,29.7,30.46,ESE,120,0.0,2.0,91,0.00,,,0.00,Wunderground v.1.15,2013-01-08 13:53:00,
2013-01-08 09:00:00,32.4,30.1,30.46,ESE,120,0.0,2.0,91,0.00,,,0.00,Wunderground v.1.15,2013-01-08 14:00:00,
2013-01-08 09:05:00,33.5,30.9,30.46,ESE,120,0.0,2.0,90,0.00,,,0.00,Wunderground v.1.15,2013-01-08 14:05:00,
2013-01-08 09:11:00,34.2,31.0,30.46,ESE,120,0.0,2.0,88,0.00,,,0.00,Wunderground v.1.15,2013-01-08 14:11:00,
2013-01-08 09:18:00,34.2,30.4,30.46,ESE,120,0.0,2.0,86,0.00,,,0.00,Wunderground v.1.15,2013-01-08 14:18:00,
2013-01-08 09:24:00,34.1,30.6,30.47,ESE,120,0.0,2.0,87,0.00,,,0.00,Wunderground v.1.15,2013-01-08 14:24:00,
2013-01-08 09:30:00,34.4,30.9,30.47,ESE,120,0.0,2.0,87,0.00,,,0.00,Wunderground v.1.15,2013-01-08 14:30:00,
2013-01-08 09:36:00,34.9,31.7,30.47,ESE,120,0.0,2.0,88,0.00,,,0.00,Wunderground v.1.15,2013-01-08 14:36:00,
2013-01-08 09:41:00,35.2,32.0,30.48,ESE,117,0.0,2.0,88,0.00,,,0.00,Wunderground v.1.15,2013-01-08 14:41:00,
2013-01-08 09:48:00,35.3,32.1,30.47,ENE,67,0.0,2.0,88,0.00,,,0.00,Wunderground v.1.15,2013-01-08 14:48:00,
2013-01-08 09:53:00,35.3,32.1,30.48,ENE,67,0.0,2.0,88,0.00,,,0.00,Wunderground v.1.15,2013-01-08 14:53:00,
2013-01-08 09:59:00,35.7,32.5,30.47,North,352,0.0,2.0,88,0.00,,,0.00,Wunderground v.1.15,2013-01-08 14:59:00,
2013-01-08 10:05:00,35.6,32.4,30.48,NE,36,1.0,2.0,88,0.00,,,0.00,Wunderground v.1.15,2013-01-08 15:05:00,
2013-01-08 10:12:00,35.7,32.5,30.48,ENE,70,1.0,2.0,88,0.00,,,0.00,Wunderground v.1.15,2013-01-08 15:12:00,
2013-01-08 10:18:00,36.1,32.9,30.48,ESE,115,0.0,2.0,88,0.00,,,0.00,Wunderground v.1.15,2013-01-08 15:18:00,
2013-01-08 10:24:00,36.5,33.3,30.48,East,97,0.0,2.0,88,0.00,,,0.00,Wunderground v.1.15,2013-01-08 15:24:00,
2013-01-08 10:30:00,37.0,33.5,30.48,East,97,0.0,2.0,87,0.00,,,0.00,Wunderground v.1.15,2013-01-08 15:30:00,
2013-01-08 10:36:00,37.2,33.7,30.48,East,90,0.0,2.0,87,0.00,,,0.00,Wunderground v.1.15,2013-01-08 15:36:00,
2013-01-08 10:41:00,37.6,34.1,30.49,ENE,60,0.0,2.0,87,0.00,,,0.00,Wunderground v.1.15,2013-01-08 15:41:00,
2013-01-08 10:47:00,38.1,34.0,30.48,ESE,102,0.0,2.0,85,0.00,,,0.00,Wunderground v.1.15,2013-01-08 15:47:00,
2013-01-08 10:53:00,38.3,34.2,30.48,ENE,77,1.0,3.0,85,0.00,,,0.00,Wunderground v.1.15,2013-01-08 15:53:00,
2013-01-08 11:00:00,38.4,34.0,30.48,ENE,72,3.0,3.0,84,0.00,,,0.00,Wunderground v.1.15,2013-01-08 16:00:00,
2013-01-08 11:06:00,38.6,33.9,30.47,ENE,58,3.0,4.0,83,0.00,,,0.00,Wunderground v.1.15,2013-01-08 16:06:00,
2013-01-08 11:12:00,38.9,33.6,30.47,ENE,62,4.0,5.0,81,0.00,,,0.00,Wunderground v.1.15,2013-01-08 16:12:00,
2013-01-08 11:17:00,38.9,33.3,30.46,NE,51,6.0,8.0,80,0.00,,,0.00,Wunderground v.1.15,2013-01-08 16:17:00,
2013-01-08 11:24:00,39.1,33.8,30.46,ENE,75,6.0,6.0,81,0.00,,,0.00,Wunderground v.1.15,2013-01-08 16:24:00,
2013-01-08 11:29:00,39.5,33.5,30.45,ENE,63,5.0,5.0,79,0.00,,,0.00,Wunderground v.1.15,2013-01-08 16:29:00,
2013-01-08 11:35:00,40.1,33.5,30.45,NE,51,4.0,6.0,77,0.00,,,0.00,Wunderground v.1.15,2013-01-08 16:35:00,
2013-01-08 11:41:00,40.6,34.3,30.45,ENE,70,3.0,3.0,78,0.00,,,0.00,Wunderground v.1.15,2013-01-08 16:41:00,
2013-01-08 11:48:00,41.0,33.3,30.44,ENE,63,4.0,6.0,74,0.00,,,0.00,Wunderground v.1.15,2013-01-08 16:48:00,
2013-01-08 11:54:00,41.3,33.3,30.44,NE,40,4.0,6.0,73,0.00,,,0.00,Wunderground v.1.15,2013-01-08 16:54:00,
2013-01-08 12:00:00,41.7,33.0,30.44,ENE,66,5.0,5.0,71,0.00,,,0.00,Wunderground v.1.15,2013-01-08 17:00:00,
2013-01-08 12:05:00,42.5,34.1,30.44,NE,39,4.0,5.0,72,0.00,,,0.00,Wunderground v.1.15,2013-01-08 17:05:00,
2013-01-08 12:12:00,43.1,33.3,30.43,NE,42,3.0,4.0,68,0.00,,,0.00,Wunderground v.1.15,2013-01-08 17:12:00,
2013-01-08 12:17:00,43.4,34.3,30.42,East,79,3.0,6.0,70,0.00,,,0.00,Wunderground v.1.15,2013-01-08 17:17:00,
2013-01-08 12:24:00,43.7,33.5,30.42,ENE,59,5.0,6.0,67,0.00,,,0.00,Wunderground v.1.15,2013-01-08 17:24:00,
2013-01-08 12:30:00,43.8,33.6,30.42,ENE,77,6.0,9.0,67,0.00,,,0.00,Wunderground v.1.15,2013-01-08 17:30:00,
2013-01-08 12:36:00,44.0,33.4,30.41,East,79,6.0,9.0,66,0.00,,,0.00,Wunderground v.1.15,2013-01-08 17:36:00,
2013-01-08 12:41:00,44.2,33.2,30.41,ENE,59,6.0,6.0,65,0.00,,,0.00,Wunderground v.1.15,2013-01-08 17:41:00,
2013-01-08 12:48:00,44.3,33.7,30.41,ENE,65,5.0,6.0,66,0.00,,,0.00,Wunderground v.1.15,2013-01-08 17:48:00,
2013-01-08 12:53:00,44.9,33.5,30.41,ENE,75,4.0,6.0,64,0.00,,,0.00,Wunderground v.1.15,2013-01-08 17:53:00,
2013-01-08 13:00:00,45.3,33.8,30.41,ENE,70,4.0,5.0,64,0.00,,,0.00,Wunderground v.1.15,2013-01-08 18:00:00,
2013-01-08 13:05:00,45.7,33.4,30.40,ENE,69,3.0,5.0,62,0.00,,,0.00,Wunderground v.1.15,2013-01-08 18:05:00,
2013-01-08 13:11:00,46.3,35.2,30.40,ENE,75,2.0,4.0,65,0.00,,,0.00,Wunderground v.1.15,2013-01-08 18:11:00,
2013-01-08 13:17:00,46.1,34.6,30.39,ENE,59,5.0,6.0,64,0.00,,,0.00,Wunderground v.1.15,2013-01-08 18:17:00,
2013-01-08 13:24:00,46.3,34.4,30.39,East,84,5.0,6.0,63,0.00,,,0.00,Wunderground v.1.15,2013-01-08 18:24:00,
2013-01-08 13:30:00,46.3,34.4,30.39,ENE,75,5.0,5.0,63,0.00,,,0.00,Wunderground v.1.15,2013-01-08 18:30:00,
2013-01-08 13:36:00,46.5,34.2,30.38,ENE,75,5.0,5.0,62,0.00,,,0.00,Wunderground v.1.15,2013-01-08 18:36:00,
2013-01-08 13:42:00,46.9,35.4,30.38,ENE,65,4.0,6.0,64,0.00,,,0.00,Wunderground v.1.15,2013-01-08 18:42:00,
2013-01-08 13:48:00,47.3,34.1,30.38,NE,56,4.0,6.0,60,0.00,,,0.00,Wunderground v.1.15,2013-01-08 18:48:00,
2013-01-08 13:53:00,47.7,34.1,30.38,East,92,3.0,3.0,59,0.00,,,0.00,Wunderground v.1.15,2013-01-08 18:53:00,
2013-01-08 13:59:00,48.4,35.1,30.38,NNE,25,2.0,2.0,60,0.00,,,0.00,Wunderground v.1.15,2013-01-08 18:59:00,
2013-01-08 14:05:00,48.9,35.2,30.37,East,101,1.0,3.0,59,0.00,,,0.00,Wunderground v.1.15,2013-01-08 19:05:00,
2013-01-08 14:12:00,49.2,35.9,30.38,North,11,2.0,2.0,60,0.00,,,0.00,Wunderground v.1.15,2013-01-08 19:12:00,
2013-01-08 14:18:00,49.6,34.1,30.37,NE,47,2.0,4.0,55,0.00,,,0.00,Wunderground v.1.15,2013-01-08 19:18:00,
2013-01-08 14:24:00,49.3,34.7,30.37,ENE,69,4.0,7.0,57,0.00,,,0.00,Wunderground v.1.15,2013-01-08 19:24:00,
2013-01-08 14:29:00,49.3,36.0,30.37,East,89,5.0,5.0,60,0.00,,,0.00,Wunderground v.1.15,2013-01-08 19:29:00,
2013-01-08 14:35:00,49.3,34.7,30.37,East,84,5.0,7.0,57,0.00,,,0.00,Wunderground v.1.15,2013-01-08 19:35:00,
2013-01-08 14:41:00,49.3,34.7,30.38,East,79,4.0,5.0,57,0.00,,,0.00,Wunderground v.1.15,2013-01-08 19:41:00,
2013-01-08 14:48:00,49.5,35.8,30.38,ENE,75,3.0,5.0,59,0.00,,,0.00,Wunderground v.1.15,2013-01-08 19:48:00,
2013-01-08 14:53:00,49.9,36.1,30.37,East,81,3.0,4.0,59,0.00,,,0.00,Wunderground v.1.15,2013-01-08 19:53:00,
2013-01-08 15:00:00,50.0,35.8,30.37,East,82,4.0,4.0,58,0.00,,,0.00,Wunderground v.1.15,2013-01-08 20:00:00,
2013-01-08 15:06:00,50.1,35.0,30.37,ENE,76,5.0,5.0,56,0.00,,,0.00,Wunderground v.1.15,2013-01-08 20:06:00,
2013-01-08 15:12:00,50.2,35.1,30.37,ENE,77,4.0,5.0,56,0.00,,,0.00,Wunderground v.1.15,2013-01-08 20:12:00,
2013-01-08 15:18:00,50.3,35.2,30.38,ENE,72,5.0,6.0,56,0.00,,,0.00,Wunderground v.1.15,2013-01-08 20:18:00,
2013-01-08 15:24:00,50.2,35.1,30.38,East,84,5.0,5.0,56,0.00,,,0.00,Wunderground v.1.15,2013-01-08 20:24:00,
2013-01-08 15:29:00,50.5,34.5,30.38,ENE,77,4.0,4.0,54,0.00,,,0.00,Wunderground v.1.15,2013-01-08 20:29:00,
2013-01-08 15:35:00,50.7,35.6,30.38,ENE,66,3.0,4.0,56,0.00,,,0.00,Wunderground v.1.15,2013-01-08 20:35:00,
2013-01-08 15:41:00,51.1,34.5,30.37,ENE,69,3.0,3.0,53,0.00,,,0.00,Wunderground v.1.15,2013-01-08 20:41:00,
2013-01-08 15:48:00,51.3,34.7,30.37,ENE,75,3.0,4.0,53,0.00,,,0.00,Wunderground v.1.15,2013-01-08 20:48:00,
2013-01-08 15:54:00,51.6,35.0,30.37,ENE,76,3.0,3.0,53,0.00,,,0.00,Wunderground v.1.15,2013-01-08 20:54:00,
2013-01-08 16:00:00,51.7,35.1,30.37,East,84,3.0,3.0,53,0.00,,,0.00,Wunderground v.1.15,2013-01-08 21:00:00,
2013-01-08 16:05:00,51.9,34.3,30.37,East,80,3.0,3.0,51,0.00,,,0.00,Wunderground v.1.15,2013-01-08 21:05:00,
2013-01-08 16:11:00,52.0,34.4,30.37,NE,56,3.0,3.0,51,0.00,,,0.00,Wunderground v.1.15,2013-01-08 21:11:00,
2013-01-08 16:17:00,52.3,34.7,30.36,East,91,2.0,3.0,51,0.00,,,0.00,Wunderground v.1.15,2013-01-08 21:17:00,
2013-01-08 16:24:00,52.4,35.3,30.36,NE,42,2.0,2.0,52,0.00,,,0.00,Wunderground v.1.15,2013-01-08 21:24:00,
2013-01-08 16:30:00,52.5,35.4,30.36,East,91,2.0,2.0,52,0.00,,,0.00,Wunderground v.1.15,2013-01-08 21:30:00,
2013-01-08 16:35:00,52.3,34.2,30.37,East,82,2.0,3.0,50,0.00,,,0.00,Wunderground v.1.15,2013-01-08 21:35:00,
2013-01-08 16:42:00,52.2,34.1,30.36,ENE,72,3.0,4.0,50,0.00,,,0.00,Wunderground v.1.15,2013-01-08 21:42:00,
2013-01-08 16:48:00,52.1,34.0,30.36,NE,56,3.0,5.0,50,0.00,,,0.00,Wunderground v.1.15,2013-01-08 21:48:00,
2013-01-08 16:54:00,52.1,34.0,30.36,NE,42,3.0,3.0,50,0.00,,,0.00,Wunderground v.1.15,2013-01-08 21:54:00,
2013-01-08 17:00:00,52.1,33.5,30.36,NE,36,1.0,2.0,49,0.00,,,0.00,Wunderground v.1.15,2013-01-08 22:00:00,
2013-01-08 17:06:00,52.0,33.9,30.36,NNE,13,1.0,2.0,50,0.00,,,0.00,Wunderground v.1.15,2013-01-08 22:06:00,
2013-01-08 17:12:00,52.0,33.9,30.36,NNE,32,1.0,2.0,50,0.00,,,0.00,Wunderground v.1.15,2013-01-08 22:12:00,
2013-01-08 17:18:00,51.6,34.0,30.36,NNE,32,0.0,2.0,51,0.00,,,0.00,Wunderground v.1.15,2013-01-08 22:18:00,
2013-01-08 17:23:00,51.0,34.5,30.36,NE,36,0.0,2.0,53,0.00,,,0.00,Wunderground v.1.15,2013-01-08 22:23:00,
2013-01-08 17:29:00,50.4,34.4,30.36,NE,36,0.0,2.0,54,0.00,,,0.00,Wunderground v.1.15,2013-01-08 22:29:00,
2013-01-08 17:35:00,49.6,34.1,30.36,NE,36,0.0,2.0,55,0.00,,,0.00,Wunderground v.1.15,2013-01-08 22:35:00,
2013-01-08 17:41:00,49.1,34.5,30.36,NE,36,0.0,2.0,57,0.00,,,0.00,Wunderground v.1.15,2013-01-08 22:41:00,
2013-01-08 17:48:00,48.6,34.0,30.36,NNE,32,0.0,2.0,57,0.00,,,0.00,Wunderground v.1.15,2013-01-08 22:48:00,
2013-01-08 17:53:00,48.4,33.9,30.35,WNW,290,0.0,2.0,57,0.00,,,0.00,Wunderground v.1.15,2013-01-08 22:53:00,
2013-01-08 18:00:00,48.3,32.9,30.35,WNW,289,0.0,2.0,55,0.00,,,0.00,Wunderground v.1.15,2013-01-08 23:00:00,
2013-01-08 18:06:00,47.9,32.9,30.35,WNW,290,0.0,2.0,56,0.00,,,0.00,Wunderground v.1.15,2013-01-08 23:06:00,
2013-01-08 18:12:00,47.0,32.5,30.35,WNW,290,0.0,2.0,57,0.00,,,0.00,Wunderground v.1.15,2013-01-08 23:12:00,
2013-01-08 18:18:00,46.3,32.7,30.35,WNW,289,0.0,2.0,59,0.00,,,0.00,Wunderground v.1.15,2013-01-08 23:18:00,
2013-01-08 18:24:00,45.8,32.7,30.36,WNW,291,0.0,2.0,60,0.00,,,0.00,Wunderground v.1.15,2013-01-08 23:24:00,
2013-01-08 18:30:00,45.3,32.6,30.36,WNW,291,0.0,2.0,61,0.00,,,0.00,Wunderground v.1.15,2013-01-08 23:30:00,
2013-01-08 18:36:00,45.1,32.0,30.35,WNW,291,0.0,2.0,60,0.00,,,0.00,Wunderground v.1.15,2013-01-08 23:36:00,
2013-01-08 18:41:00,45.1,32.0,30.36,WNW,291,0.0,2.0,60,0.00,,,0.00,Wunderground v.1.15,2013-01-08 23:41:00,
2013-01-08 18:47:00,44.8,31.8,30.36,WNW,291,0.0,2.0,60,0.00,,,0.00,Wunderground v.1.15,2013-01-08 23:47:00,
2013-01-08 18:53:00,44.3,31.7,30.35,WNW,291,0.0,2.0,61,0.00,,,0.00,Wunderground v.1.15,2013-01-08 23:53:00,
2013-01-08 18:59:00,43.6,31.8,30.35,WNW,290,0.0,2.0,63,0.00,,,0.00,Wunderground v.1.15,2013-01-08 23:59:00,
2013-01-08 19:06:00,42.5,31.9,30.35,WNW,300,0.0,2.0,66,0.00,,,0.00,Wunderground v.1.15,2013-01-09 00:06:00,
2013-01-08 19:12:00,42.6,31.7,30.36,WNW,300,0.0,2.0,65,0.00,,,0.00,Wunderground v.1.15,2013-01-09 00:12:00,
2013-01-08 19:18:00,43.0,31.6,30.36,NW,305,0.0,2.0,64,0.00,,,0.00,Wunderground v.1.15,2013-01-09 00:18:00,
2013-01-08 19:23:00,43.2,31.1,30.36,WNW,295,0.0,2.0,62,0.00,,,0.00,Wunderground v.1.15,2013-01-09 00:23:00,
2013-01-08 19:29:00,43.2,31.1,30.36,WNW,298,0.0,2.0,62,0.00,,,0.00,Wunderground v.1.15,2013-01-09 00:29:00,
2013-01-08 19:36:00,43.3,30.7,30.36,WNW,297,0.0,2.0,61,0.00,,,0.00,Wunderground v.1.15,2013-01-09 00:36:00,
2013-01-08 19:42:00,42.9,30.8,30.36,WNW,298,0.0,2.0,62,0.00,,,0.00,Wunderground v.1.15,2013-01-09 00:42:00,
2013-01-08 19:48:00,42.6,31.3,30.36,WNW,302,0.0,2.0,64,0.00,,,0.00,Wunderground v.1.15,2013-01-09 00:48:00,
2013-01-08 19:54:00,42.1,31.6,30.36,NW,314,0.0,2.0,66,0.00,,,0.00,Wunderground v.1.15,2013-01-09 00:54:00,
2013-01-08 20:00:00,41.6,31.8,30.36,NW,314,0.0,2.0,68,0.00,,,0.00,Wunderground v.1.15,2013-01-09 01:00:00,
2013-01-08 20:05:00,41.5,31.7,30.36,NW,314,0.0,2.0,68,0.00,,,0.00,Wunderground v.1.15,2013-01-09 01:05:00,
2013-01-08 20:12:00,41.2,31.8,30.36,NNW,328,0.0,2.0,69,0.00,,,0.00,Wunderground v.1.15,2013-01-09 01:12:00,
2013-01-08 20:17:00,40.8,31.8,30.36,NW,316,0.0,2.0,70,0.00,,,0.00,Wunderground v.1.15,2013-01-09 01:17:00,
2013-01-08 20:23:00,40.9,31.5,30.36,NW,316,0.0,2.0,69,0.00,,,0.00,Wunderground v.1.15,2013-01-09 01:23:00,
2013-01-08 20:29:00,40.7,31.3,30.36,NW,316,0.0,2.0,69,0.00,,,0.00,Wunderground v.1.15,2013-01-09 01:29:00,
2013-01-08 20:35:00,40.7,31.7,30.36,NW,316,0.0,2.0,70,0.00,,,0.00,Wunderground v.1.15,2013-01-09 01:35:00,
2013-01-08 20:41:00,41.0,31.6,30.36,NW,316,0.0,2.0,69,0.00,,,0.00,Wunderground v.1.15,2013-01-09 01:41:00,
2013-01-08 20:48:00,40.9,31.5,30.36,NW,316,0.0,2.0,69,0.00,,,0.00,Wunderground v.1.15,2013-01-09 01:48:00,
2013-01-08 20:54:00,40.7,31.3,30.36,NW,316,0.0,2.0,69,0.00,,,0.00,Wunderground v.1.15,2013-01-09 01:54:00,
2013-01-08 21:00:00,40.9,31.5,30.36,NW,316,0.0,2.0,69,0.00,,,0.00,Wunderground v.1.15,2013-01-09 02:00:00,
2013-01-08 21:06:00,41.0,32.3,30.37,NW,316,0.0,2.0,71,0.00,,,0.00,Wunderground v.1.15,2013-01-09 02:06:00,
2013-01-08 21:11:00,41.1,32.8,30.37,NW,316,0.0,2.0,72,0.00,,,0.00,Wunderground v.1.15,2013-01-09 02:11:00,
2013-01-08 21:18:00,41.0,32.7,30.36,NW,316,0.0,2.0,72,0.00,,,0.00,Wunderground v.1.15,2013-01-09 02:18:00,
2013-01-08 21:23:00,40.4,31.7,30.36,NW,307,0.0,2.0,71,0.00,,,0.00,Wunderground v.1.15,2013-01-09 02:23:00,
2013-01-08 21:29:00,39.8,31.2,30.36,NW,308,0.0,2.0,71,0.00,,,0.00,Wunderground v.1.15,2013-01-09 02:29:00,
2013-01-08 21:35:00,39.6,31.3,30.36,NW,307,0.0,2.0,72,0.00,,,0.00,Wunderground v.1.15,2013-01-09 02:35:00,
2013-01-08 21:41:00,39.5,31.6,30.37,NW,308,0.0,2.0,73,0.00,,,0.00,Wunderground v.1.15,2013-01-09 02:41:00,
2013-01-08 21:47:00,39.3,31.4,30.37,NW,307,0.0,2.0,73,0.00,,,0.00,Wunderground v.1.15,2013-01-09 02:47:00,
2013-01-08 21:54:00,39.1,31.5,30.37,WNW,298,0.0,2.0,74,0.00,,,0.00,Wunderground v.1.15,2013-01-09 02:54:00,
2013-01-08 22:00:00,39.1,32.2,30.37,WNW,283,1.0,2.0,76,0.00,,,0.00,Wunderground v.1.15,2013-01-09 03:00:00,
2013-01-08 22:06:00,39.6,32.7,30.37,WNW,283,1.0,2.0,76,0.00,,,0.00,Wunderground v.1.15,2013-01-09 03:06:00,
2013-01-08 22:11:00,39.5,32.2,30.37,WNW,283,0.0,2.0,75,0.00,,,0.00,Wunderground v.1.15,2013-01-09 03:11:00,
2013-01-08 22:18:00,38.8,31.6,30.37,WNW,283,0.0,2.0,75,0.00,,,0.00,Wunderground v.1.15,2013-01-09 03:18:00,
2013-01-08 22:23:00,38.4,31.5,30.37,WNW,283,0.0,2.0,76,0.00,,,0.00,Wunderground v.1.15,2013-01-09 03:23:00,
2013-01-08 22:30:00,38.4,31.5,30.36,WNW,283,0.0,2.0,76,0.00,,,0.00,Wunderground v.1.15,2013-01-09 03:30:00,
2013-01-08 22:36:00,38.2,31.6,30.36,WNW,283,0.0,2.0,77,0.00,,,0.00,Wunderground v.1.15,2013-01-09 03:36:00,
2013-01-08 22:42:00,38.0,31.4,30.37,WNW,283,0.0,2.0,77,0.00,,,0.00,Wunderground v.1.15,2013-01-09 03:42:00,
2013-01-08 22:47:00,38.3,31.4,30.37,WNW,283,0.0,2.0,76,0.00,,,0.00,Wunderground v.1.15,2013-01-09 03:47:00,
2013-01-08 22:54:00,38.6,31.7,30.37,WNW,283,0.0,2.0,76,0.00,,,0.00,Wunderground v.1.15,2013-01-09 03:54:00,
2013-01-08 22:59:00,38.6,31.7,30.37,WNW,283,0.0,2.0,76,0.00,,,0.00,Wunderground v.1.15,2013-01-09 03:59:00,
2013-01-08 23:05:00,38.3,31.4,30.37,WNW,283,0.0,2.0,76,0.00,,,0.00,Wunderground v.1.15,2013-01-09 04:05:00,
2013-01-08 23:11:00,38.3,31.7,30.37,WNW,283,0.0,2.0,77,0.00,,,0.00,Wunderground v.1.15,2013-01-09 04:11:00,
2013-01-08 23:17:00,38.4,31.8,30.37,WNW,283,0.0,2.0,77,0.00,,,0.00,Wunderground v.1.15,2013-01-09 04:17:00,
2013-01-08 23:23:00,38.7,32.4,30.37,WNW,283,0.0,2.0,78,0.00,,,0.00,Wunderground v.1.15,2013-01-09 04:23:00,
2013-01-08 23:29:00,38.8,31.9,30.37,WNW,282,0.0,2.0,76,0.00,,,0.00,Wunderground v.1.15,2013-01-09 04:29:00,
2013-01-08 23:36:00,38.9,32.9,30.36,WNW,283,0.0,2.0,79,0.00,,,0.00,Wunderground v.1.15,2013-01-09 04:36:00,
2013-01-08 23:42:00,38.9,33.3,30.36,WNW,284,1.0,2.0,80,0.00,,,0.00,Wunderground v.1.15,2013-01-09 04:42:00,
2013-01-08 23:48:00,38.9,33.9,30.36,WNW,284,0.0,2.0,82,0.00,,,0.00,Wunderground v.1.15,2013-01-09 04:48:00,
2013-01-08 23:53:00,38.7,33.4,30.37,WNW,284,0.0,2.0,81,0.00,,,0.00,Wunderground v.1.15,2013-01-09 04:53:00,